Coosaw, South Carolina
Current Conditions -  °F | °C
As of 3:56 AM on Saturday 29 Nov 2014 (Local Time) from KNBC Reporting Station
Clear Clear  
Wind Chill: 34°   Ceiling: Unl
Heat Index: 34°   Visibility: 10mi
Dew Point: 32°   Wind: 0mph
Humidity: 92%   Direction: NA
Pressure: 30.33"   Gusts: NA
Location:  32.5229°N, 80.7459°W
Report Text: KNBC 290856Z AUTO 00000KT 10SM CLR 01/00 A3033 RMK AO2 SLP271 T00110000 51004
Loading
Personal Weather Stations






























Interactive Weather Map New forecast layout! Learn more

10-Day Weather Forecast

Advertisements
Track Severe Weather on mobile